Manitowaning, Canada
Current Conditions -  °F | °C
As of 12:00 AM on Thursday 23 Oct 2014 (Local Time) from CYZE Reporting Station
Clear Clear  
Wind Chill: 32°   Ceiling: Unl
Heat Index: 32°   Visibility: 9mi
Dew Point: 30°   Wind: 3mph
Humidity: 93%   Direction: 70°ENE
Pressure: 30.29"   Gusts: NA
Location:  45.73°N, 81.8°W
Report Text: CYZE 230400Z AUTO 07003KT 9SM CLR 00/M01 A3029 RMK SLP266
Loading
Personal Weather Stations






























Interactive Weather Map
Tropical Storm Tracking
New forecast layout! Learn more

10-Day Weather Forecast

Advertisements
Track Severe Weather on mobile